createdAt,value
2023-03-26T00:00:16.851Z,1.90
2023-03-26T00:02:47.228Z,1.60
2023-03-26T00:05:17.622Z,1.60
2023-03-26T00:07:48.647Z,1.70
2023-03-26T00:10:19.074Z,1.70
2023-03-26T00:12:49.722Z,2.00
2023-03-26T00:15:20.525Z,1.90
2023-03-26T00:17:51.830Z,2.00
2023-03-26T00:20:22.645Z,1.50
2023-03-26T00:22:53.548Z,2.00
2023-03-26T00:25:24.688Z,1.80
2023-03-26T00:27:55.671Z,1.40
2023-03-26T00:30:26.613Z,1.60
2023-03-26T00:32:57.318Z,1.70
2023-03-26T00:35:29.224Z,1.70
2023-03-26T00:37:59.801Z,1.60
2023-03-26T00:40:32.084Z,1.60
2023-03-26T00:43:02.498Z,1.70
2023-03-26T00:45:32.798Z,1.80
2023-03-26T00:48:04.250Z,1.90
2023-03-26T00:50:34.905Z,1.70
2023-03-26T00:53:05.327Z,2.00
2023-03-26T00:55:35.642Z,1.90
2023-03-26T00:58:06.076Z,1.90
2023-03-26T01:00:39.170Z,2.20
2023-03-26T01:05:52.964Z,2.40
2023-03-26T01:08:29.140Z,2.00
2023-03-26T01:11:05.266Z,2.00
2023-03-26T01:13:39.330Z,2.10
2023-03-26T01:16:20.358Z,2.70
2023-03-26T01:18:52.763Z,1.80
2023-03-26T01:21:28.527Z,2.00
2023-03-26T01:24:01.811Z,1.90
2023-03-26T01:26:43.852Z,2.50
2023-03-26T01:29:20.929Z,2.50
2023-03-26T01:32:00.429Z,2.10
2023-03-26T01:34:37.799Z,1.70
2023-03-26T01:37:17.639Z,1.90
2023-03-26T01:39:56.856Z,2.00
2023-03-26T01:42:35.364Z,1.80
2023-03-26T01:45:11.521Z,1.60
2023-03-26T01:47:43.379Z,1.50
2023-03-26T01:50:14.183Z,1.70
2023-03-26T01:52:44.853Z,1.50
2023-03-26T01:55:15.494Z,1.80
2023-03-26T01:57:56.652Z,1.40
2023-03-26T02:00:32.632Z,2.10
2023-03-26T02:03:18.089Z,1.40
2023-03-26T02:05:57.852Z,1.60
2023-03-26T02:08:36.287Z,1.20
2023-03-26T02:11:13.153Z,1.30
2023-03-26T02:13:46.657Z,1.70
2023-03-26T02:16:20.678Z,1.50
2023-03-26T02:18:55.735Z,1.80
2023-03-26T02:21:27.897Z,1.30
2023-03-26T02:24:03.324Z,1.50
2023-03-26T02:26:37.559Z,1.50
2023-03-26T02:29:08.098Z,1.40
2023-03-26T02:31:38.758Z,1.20
2023-03-26T02:34:09.125Z,1.10
2023-03-26T02:36:39.575Z,1.20
2023-03-26T02:39:10.766Z,1.10
2023-03-26T02:41:41.477Z,1.10
2023-03-26T02:44:12.120Z,0.90
2023-03-26T02:46:42.436Z,1.30
2023-03-26T02:49:13.024Z,1.60
2023-03-26T02:51:43.601Z,1.20
2023-03-26T02:54:16.219Z,1.50
2023-03-26T02:56:47.000Z,1.50
2023-03-26T02:59:17.354Z,1.30
2023-03-26T03:01:47.646Z,1.10
2023-03-26T03:04:18.405Z,1.50
2023-03-26T03:06:52.879Z,1.10
2023-03-26T03:09:23.303Z,1.70
2023-03-26T03:11:53.886Z,1.50
2023-03-26T03:14:24.170Z,1.30
2023-03-26T03:16:54.847Z,1.30
2023-03-26T03:19:25.198Z,1.30
2023-03-26T03:21:55.508Z,1.40
2023-03-26T03:24:27.093Z,1.30
2023-03-26T03:26:58.010Z,1.50
2023-03-26T03:29:29.243Z,1.50
2023-03-26T03:32:00.138Z,1.30
2023-03-26T03:34:30.523Z,1.20
2023-03-26T03:37:00.901Z,1.20
2023-03-26T03:39:31.617Z,1.30
2023-03-26T03:42:01.883Z,1.30
2023-03-26T03:44:32.262Z,1.30
2023-03-26T03:47:02.564Z,1.20
2023-03-26T03:49:33.309Z,1.20
2023-03-26T03:52:03.621Z,1.30
2023-03-26T03:54:33.958Z,1.00
2023-03-26T03:57:04.404Z,1.20
2023-03-26T03:59:34.817Z,1.20
2023-03-26T04:02:05.304Z,1.30
2023-03-26T04:04:37.604Z,1.10
2023-03-26T04:07:08.098Z,1.50
2023-03-26T04:09:38.408Z,1.10
2023-03-26T04:12:09.335Z,1.20
2023-03-26T04:14:39.601Z,1.20
2023-03-26T04:17:10.153Z,1.30
2023-03-26T04:19:40.444Z,1.30
2023-03-26T04:22:11.947Z,1.40
2023-03-26T04:24:42.295Z,1.20
2023-03-26T04:27:17.031Z,1.20
2023-03-26T04:29:50.625Z,1.20
2023-03-26T04:32:26.517Z,1.20
2023-03-26T04:35:00.138Z,1.50
2023-03-26T04:37:39.442Z,1.20
2023-03-26T04:40:14.643Z,1.00
2023-03-26T04:42:46.160Z,1.30
2023-03-26T04:45:22.456Z,1.20
2023-03-26T04:47:53.215Z,1.30
2023-03-26T04:50:23.609Z,1.20
2023-03-26T04:52:57.160Z,1.10
2023-03-26T04:55:33.112Z,1.10
2023-03-26T04:58:05.394Z,1.20
2023-03-26T05:00:36.258Z,1.30
2023-03-26T05:03:09.742Z,1.10
2023-03-26T05:05:41.036Z,1.10
2023-03-26T05:08:11.534Z,1.10
2023-03-26T05:10:41.822Z,1.20
2023-03-26T05:13:12.375Z,1.40
2023-03-26T05:15:42.689Z,1.30
2023-03-26T05:18:12.976Z,1.20
2023-03-26T05:20:43.777Z,1.30
2023-03-26T05:23:14.160Z,1.10
2023-03-26T05:25:44.500Z,1.40
2023-03-26T05:28:15.430Z,1.50
2023-03-26T05:30:46.012Z,1.20
2023-03-26T05:33:16.365Z,1.30
2023-03-26T05:35:49.362Z,0.90
2023-03-26T05:38:19.665Z,1.10
2023-03-26T05:40:49.941Z,1.00
2023-03-26T05:43:20.249Z,1.40
2023-03-26T05:45:52.015Z,1.10
2023-03-26T05:48:22.725Z,1.40
2023-03-26T05:50:54.574Z,1.30
2023-03-26T05:53:27.398Z,1.50
2023-03-26T05:55:58.708Z,1.20
2023-03-26T05:58:30.413Z,1.20
2023-03-26T06:01:05.368Z,1.60
2023-03-26T06:03:36.880Z,1.40
2023-03-26T06:06:09.829Z,1.30
2023-03-26T06:08:41.190Z,1.60
2023-03-26T06:11:13.657Z,1.20
2023-03-26T06:13:45.334Z,1.00
2023-03-26T06:16:21.091Z,1.10
2023-03-26T06:18:58.381Z,1.50
2023-03-26T06:21:29.713Z,1.60
2023-03-26T06:24:00.374Z,1.40
2023-03-26T06:26:30.914Z,1.40
2023-03-26T06:29:01.242Z,1.60
2023-03-26T06:31:31.593Z,1.30
2023-03-26T06:34:02.227Z,1.60
2023-03-26T06:36:32.517Z,1.30
2023-03-26T06:39:07.796Z,1.90
2023-03-26T06:41:38.631Z,1.50
2023-03-26T06:44:08.900Z,1.70
2023-03-26T06:46:39.475Z,1.90
2023-03-26T06:49:09.855Z,1.70
2023-03-26T06:51:41.152Z,1.60
2023-03-26T06:54:11.597Z,1.70
2023-03-26T06:56:41.941Z,1.60
2023-03-26T06:59:12.264Z,1.60
2023-03-26T07:01:42.514Z,1.40
2023-03-26T07:04:13.171Z,2.10
2023-03-26T07:06:43.521Z,1.90
2023-03-26T07:09:13.959Z,1.80
2023-03-26T07:11:44.305Z,1.80
2023-03-26T07:14:15.016Z,2.20
2023-03-26T07:16:45.893Z,1.40
2023-03-26T07:19:16.182Z,2.40
2023-03-26T07:21:47.706Z,2.40
2023-03-26T07:24:20.262Z,2.30
2023-03-26T07:26:57.251Z,2.80
2023-03-26T07:29:35.795Z,2.40
2023-03-26T07:32:18.505Z,2.60
2023-03-26T07:34:57.567Z,2.50
2023-03-26T07:37:39.250Z,2.30
2023-03-26T07:40:25.465Z,2.10
2023-03-26T07:43:10.508Z,1.90
2023-03-26T07:45:42.722Z,1.80
2023-03-26T07:48:18.962Z,2.60
2023-03-26T07:50:53.072Z,2.00
2023-03-26T07:53:24.888Z,2.50
2023-03-26T07:56:04.163Z,2.30
2023-03-26T07:58:56.795Z,2.10
2023-03-26T08:01:41.243Z,2.10
2023-03-26T08:04:38.247Z,2.50
2023-03-26T08:07:29.599Z,2.30
2023-03-26T08:10:09.328Z,2.00
2023-03-26T08:12:48.123Z,2.20
2023-03-26T08:15:29.119Z,2.10
2023-03-26T08:18:07.822Z,1.80
2023-03-26T08:20:43.633Z,1.80
2023-03-26T08:23:25.207Z,1.70
2023-03-26T08:26:04.771Z,1.80
2023-03-26T08:28:48.600Z,2.10
2023-03-26T08:31:25.016Z,2.00
2023-03-26T08:33:55.533Z,2.20
2023-03-26T08:36:25.793Z,2.30
2023-03-26T08:38:57.593Z,1.70
2023-03-26T08:42:03.034Z,1.90
2023-03-26T08:45:27.933Z,1.70
2023-03-26T08:48:19.951Z,1.50
2023-03-26T08:51:22.981Z,1.20
2023-03-26T08:54:17.988Z,1.50
2023-03-26T08:56:58.769Z,1.50
2023-03-26T08:59:56.942Z,1.30
2023-03-26T09:02:55.415Z,1.60
2023-03-26T09:06:01.274Z,1.40
2023-03-26T09:09:19.019Z,1.40
2023-03-26T09:12:33.325Z,1.50
2023-03-26T09:15:29.055Z,1.60
2023-03-26T09:18:44.774Z,1.30
2023-03-26T09:21:40.285Z,1.10
2023-03-26T09:24:52.765Z,1.80
2023-03-26T09:27:41.824Z,1.40
2023-03-26T09:31:01.692Z,0.90
2023-03-26T09:33:55.917Z,1.10
2023-03-26T09:36:37.782Z,1.30
2023-03-26T09:39:17.435Z,1.10
2023-03-26T09:42:08.436Z,1.10
2023-03-26T09:45:17.402Z,1.00
2023-03-26T09:48:15.766Z,1.20
2023-03-26T09:50:57.703Z,1.40
2023-03-26T09:53:55.507Z,1.30
2023-03-26T09:59:31.612Z,1.60
2023-03-26T10:02:18.250Z,1.10
2023-03-26T10:05:06.720Z,1.20
2023-03-26T10:07:55.929Z,1.20
2023-03-26T10:10:36.703Z,1.30
2023-03-26T10:13:15.684Z,1.80
2023-03-26T10:15:59.268Z,1.60
2023-03-26T10:18:42.210Z,1.90
2023-03-26T10:21:20.110Z,1.50
2023-03-26T10:24:12.084Z,1.60
2023-03-26T10:27:08.666Z,1.80
2023-03-26T10:30:22.865Z,1.60
2023-03-26T10:33:05.866Z,1.80
2023-03-26T10:35:48.157Z,1.50
2023-03-26T10:38:33.501Z,1.60
2023-03-26T10:41:14.691Z,1.60
2023-03-26T10:44:08.695Z,1.60
2023-03-26T10:46:52.163Z,1.80
2023-03-26T10:49:49.093Z,1.30
2023-03-26T10:52:22.880Z,1.80
2023-03-26T10:54:57.852Z,1.70
2023-03-26T10:57:44.212Z,1.70
2023-03-26T11:00:25.148Z,1.40
2023-03-26T11:03:20.888Z,1.60
2023-03-26T11:05:59.752Z,1.80
2023-03-26T11:08:39.661Z,1.60
2023-03-26T11:11:21.544Z,1.70
2023-03-26T11:14:01.409Z,1.80
2023-03-26T11:16:49.920Z,1.70
2023-03-26T11:19:28.693Z,1.60
2023-03-26T11:22:07.945Z,1.80
2023-03-26T11:24:58.021Z,1.70
2023-03-26T11:27:45.718Z,1.80
2023-03-26T11:32:53.912Z,1.70
2023-03-26T11:35:39.911Z,2.00
2023-03-26T11:38:20.875Z,1.40
2023-03-26T11:40:54.081Z,1.60
2023-03-26T11:43:31.179Z,1.80
2023-03-26T11:46:02.987Z,1.70
2023-03-26T11:48:38.021Z,1.70
2023-03-26T11:51:12.776Z,1.80
2023-03-26T11:53:47.037Z,2.10
2023-03-26T11:56:27.099Z,1.70
2023-03-26T11:59:02.425Z,1.60
2023-03-26T12:01:50.687Z,1.80
2023-03-26T12:04:29.237Z,1.90
2023-03-26T12:07:08.585Z,2.10
2023-03-26T12:09:50.025Z,1.80
2023-03-26T12:12:20.937Z,2.00
2023-03-26T12:14:51.689Z,1.90
2023-03-26T12:17:33.158Z,1.70
2023-03-26T12:20:23.493Z,1.90
2023-03-26T12:22:58.919Z,2.10
2023-03-26T12:25:31.273Z,1.80
2023-03-26T12:28:04.037Z,1.70
2023-03-26T12:30:37.298Z,1.90
2023-03-26T12:33:16.615Z,2.20
2023-03-26T12:35:47.086Z,1.80
2023-03-26T12:38:22.957Z,1.80
2023-03-26T12:41:07.889Z,2.00
2023-03-26T12:44:46.329Z,1.80
2023-03-26T12:47:55.305Z,1.40
2023-03-26T12:49:26.699Z,1.90
2023-03-26T12:52:03.930Z,1.50
2023-03-26T12:54:46.024Z,1.80
2023-03-26T12:57:22.239Z,1.60
2023-03-26T13:00:14.226Z,2.00
2023-03-26T13:03:09.343Z,2.00
2023-03-26T13:05:50.685Z,1.60
2023-03-26T13:08:47.218Z,1.90
2023-03-26T13:11:28.307Z,1.50
2023-03-26T13:14:26.389Z,1.50
2023-03-26T13:17:01.528Z,1.80
2023-03-26T13:19:41.493Z,1.80
2023-03-26T13:22:25.284Z,1.50
2023-03-26T13:25:04.043Z,1.90
2023-03-26T13:27:49.153Z,1.80
2023-03-26T13:30:31.417Z,1.80
2023-03-26T13:33:15.762Z,2.20
2023-03-26T13:36:06.035Z,1.60
2023-03-26T13:38:58.900Z,2.00
2023-03-26T13:41:41.657Z,1.40
2023-03-26T13:44:23.127Z,1.40
2023-03-26T13:46:59.390Z,1.80
2023-03-26T13:49:37.412Z,2.50
2023-03-26T13:52:12.731Z,1.70
2023-03-26T13:54:48.908Z,1.50
2023-03-26T13:57:25.866Z,2.00
2023-03-26T14:00:01.427Z,1.80
2023-03-26T14:02:37.289Z,2.00
2023-03-26T14:05:16.610Z,2.00
2023-03-26T14:07:52.326Z,1.70
2023-03-26T14:10:27.255Z,1.80
2023-03-26T14:13:01.280Z,1.30
2023-03-26T14:15:37.443Z,1.80
2023-03-26T14:18:21.502Z,1.50
2023-03-26T14:21:30.128Z,1.50
2023-03-26T14:24:21.329Z,2.00
2023-03-26T14:27:06.062Z,1.80
2023-03-26T14:29:56.634Z,1.70
2023-03-26T14:32:51.843Z,1.70
2023-03-26T14:35:37.713Z,1.90
2023-03-26T14:38:33.455Z,1.80
2023-03-26T14:41:20.828Z,1.60
2023-03-26T14:44:06.730Z,1.80
2023-03-26T14:46:53.418Z,1.90
2023-03-26T14:49:43.550Z,2.00
2023-03-26T14:52:18.555Z,1.90
2023-03-26T14:54:53.907Z,1.50
2023-03-26T14:57:46.122Z,1.80
2023-03-26T15:01:04.261Z,1.50
2023-03-26T15:04:10.041Z,1.90
2023-03-26T15:07:25.585Z,1.60
2023-03-26T15:10:28.206Z,1.60
2023-03-26T15:13:11.687Z,1.70
2023-03-26T15:16:17.828Z,1.70
2023-03-26T15:19:17.645Z,1.50
2023-03-26T15:22:19.786Z,1.80
2023-03-26T15:25:23.098Z,2.50
2023-03-26T15:28:10.542Z,1.80
2023-03-26T15:31:13.863Z,1.90
2023-03-26T15:34:19.988Z,1.30
2023-03-26T15:37:29.718Z,1.90
2023-03-26T15:40:27.872Z,1.70
2023-03-26T15:43:07.625Z,1.50
2023-03-26T15:45:40.728Z,1.70
2023-03-26T15:48:35.360Z,2.00
2023-03-26T15:51:23.502Z,1.90
2023-03-26T15:54:01.146Z,1.90
2023-03-26T15:56:58.945Z,2.40
2023-03-26T15:59:41.667Z,2.20
2023-03-26T16:02:23.481Z,2.20
2023-03-26T16:04:57.419Z,1.70
2023-03-26T16:07:41.356Z,1.90
2023-03-26T16:10:29.107Z,2.00
2023-03-26T16:13:25.216Z,1.80
2023-03-26T16:15:58.466Z,1.60
2023-03-26T16:18:35.795Z,1.60
2023-03-26T16:21:34.855Z,1.70
2023-03-26T16:24:34.654Z,1.90
2023-03-26T16:27:23.352Z,1.50
2023-03-26T16:30:25.673Z,1.90
2023-03-26T16:32:58.862Z,1.50
2023-03-26T16:35:51.228Z,1.40
2023-03-26T16:38:27.261Z,1.90
2023-03-26T16:41:08.213Z,1.50
2023-03-26T16:43:52.093Z,1.30
2023-03-26T16:46:37.409Z,1.40
2023-03-26T16:49:17.422Z,1.60
2023-03-26T16:52:03.109Z,1.50
2023-03-26T16:54:44.107Z,2.00
2023-03-26T16:57:25.981Z,1.60
2023-03-26T17:00:30.030Z,1.40
2023-03-26T17:03:13.002Z,1.80
2023-03-26T17:06:02.087Z,1.60
2023-03-26T17:08:43.235Z,1.50
2023-03-26T17:11:23.359Z,1.70
2023-03-26T17:14:03.685Z,1.20
2023-03-26T17:16:41.362Z,1.70
2023-03-26T17:19:25.996Z,1.60
2023-03-26T17:22:02.270Z,1.10
2023-03-26T17:24:41.128Z,1.40
2023-03-26T17:27:26.380Z,1.80
2023-03-26T17:30:06.313Z,2.20
2023-03-26T17:32:59.812Z,1.80
2023-03-26T17:35:43.556Z,1.50
2023-03-26T17:38:45.548Z,1.70
2023-03-26T17:41:36.529Z,1.40
2023-03-26T17:44:45.575Z,1.20
2023-03-26T17:47:24.602Z,1.60
2023-03-26T17:50:00.811Z,1.50
2023-03-26T17:52:42.619Z,1.80
2023-03-26T17:55:20.792Z,1.50
2023-03-26T17:57:54.344Z,1.70
2023-03-26T18:00:27.987Z,1.40
2023-03-26T18:03:01.727Z,1.40
2023-03-26T18:05:34.132Z,1.60
2023-03-26T18:08:34.153Z,1.50
2023-03-26T18:11:19.717Z,1.40
2023-03-26T18:14:08.697Z,1.70
2023-03-26T18:16:42.796Z,1.40
2023-03-26T18:19:19.410Z,1.80
2023-03-26T18:21:52.782Z,1.70
2023-03-26T18:24:26.687Z,2.20
2023-03-26T18:27:02.475Z,1.40
2023-03-26T18:29:35.240Z,1.90
2023-03-26T18:32:22.246Z,2.20
2023-03-26T18:34:58.162Z,1.60
2023-03-26T18:37:31.684Z,1.30
2023-03-26T18:40:11.616Z,1.60
2023-03-26T18:42:45.170Z,1.70
2023-03-26T18:45:27.577Z,1.70
2023-03-26T18:48:00.276Z,2.10
2023-03-26T18:50:36.560Z,1.90
2023-03-26T18:53:11.200Z,1.50
2023-03-26T18:55:41.853Z,1.80
2023-03-26T18:58:26.705Z,1.70
2023-03-26T19:01:00.743Z,1.50
2023-03-26T19:03:35.637Z,1.30
2023-03-26T19:06:11.017Z,1.90
2023-03-26T19:08:43.748Z,1.70
2023-03-26T19:11:17.195Z,1.20
2023-03-26T19:13:59.484Z,1.60
2023-03-26T19:16:33.984Z,1.50
2023-03-26T19:19:07.397Z,1.70
2023-03-26T19:21:38.517Z,3.30
2023-03-26T19:24:10.315Z,1.70
2023-03-26T19:26:40.680Z,1.80
2023-03-26T19:29:15.945Z,1.70
2023-03-26T19:31:50.979Z,2.10
2023-03-26T19:34:31.962Z,1.80
2023-03-26T19:37:04.250Z,1.70
2023-03-26T19:39:43.764Z,1.60
2023-03-26T19:42:18.363Z,2.00
2023-03-26T19:44:48.940Z,2.00
2023-03-26T19:47:31.964Z,1.60
2023-03-26T19:50:25.938Z,1.50
2023-03-26T19:53:17.873Z,2.00
2023-03-26T19:55:58.733Z,1.70
2023-03-26T19:58:29.887Z,1.80
2023-03-26T20:01:00.512Z,1.60
2023-03-26T20:03:38.052Z,1.40
2023-03-26T20:06:11.363Z,1.20
2023-03-26T20:08:42.710Z,1.80
2023-03-26T20:11:19.612Z,2.30
2023-03-26T20:13:51.030Z,1.90
2023-03-26T20:16:26.887Z,1.80
2023-03-26T20:18:58.343Z,1.70
2023-03-26T20:21:29.942Z,1.40
2023-03-26T20:24:01.004Z,1.90
2023-03-26T20:26:31.357Z,1.50
2023-03-26T20:29:03.058Z,1.60
2023-03-26T20:31:34.829Z,1.60
2023-03-26T20:34:07.570Z,1.70
2023-03-26T20:36:38.721Z,1.60
2023-03-26T20:39:10.198Z,1.80
2023-03-26T20:41:44.924Z,1.60
2023-03-26T20:44:17.913Z,1.50
2023-03-26T20:46:49.709Z,1.70
2023-03-26T20:49:22.066Z,1.70
2023-03-26T20:51:52.667Z,1.40
2023-03-26T20:54:26.789Z,1.80
2023-03-26T20:56:58.089Z,1.60
2023-03-26T20:59:30.867Z,1.30
2023-03-26T21:02:01.310Z,1.50
2023-03-26T21:04:32.110Z,1.70
2023-03-26T21:07:15.062Z,1.80
2023-03-26T21:09:49.321Z,1.60
2023-03-26T21:12:29.451Z,1.30
2023-03-26T21:17:33.123Z,1.40
2023-03-26T21:20:11.918Z,1.60
2023-03-26T21:22:48.581Z,1.40
2023-03-26T21:25:33.440Z,1.30
2023-03-26T21:28:16.301Z,1.10
2023-03-26T21:30:48.331Z,1.20
2023-03-26T21:33:19.264Z,1.60
2023-03-26T21:35:52.019Z,1.30
2023-03-26T21:38:24.885Z,1.60
2023-03-26T21:40:58.825Z,1.20
2023-03-26T21:43:30.447Z,1.10
2023-03-26T21:46:01.705Z,1.70
2023-03-26T21:48:33.203Z,1.20
2023-03-26T21:51:06.512Z,1.30
2023-03-26T21:53:38.189Z,1.50
2023-03-26T21:56:22.012Z,1.70
2023-03-26T21:59:00.124Z,1.50
2023-03-26T22:01:41.235Z,1.30
2023-03-26T22:04:17.867Z,0.90
2023-03-26T22:06:56.783Z,1.20
2023-03-26T22:12:04.406Z,1.20
2023-03-26T22:14:35.353Z,1.30
2023-03-26T22:17:06.214Z,1.40
2023-03-26T22:19:36.889Z,1.40
2023-03-26T22:22:07.186Z,1.30
2023-03-26T22:24:38.363Z,1.20
2023-03-26T22:27:08.764Z,1.30
2023-03-26T22:29:39.063Z,1.20
2023-03-26T22:32:09.924Z,1.50
2023-03-26T22:34:41.361Z,1.40
2023-03-26T22:37:12.026Z,1.10
2023-03-26T22:39:42.993Z,1.20
2023-03-26T22:42:14.007Z,1.50
2023-03-26T22:44:44.644Z,1.30
2023-03-26T22:47:16.910Z,1.40
2023-03-26T22:49:47.217Z,1.60
2023-03-26T22:52:17.490Z,1.20
2023-03-26T22:54:47.805Z,1.40
2023-03-26T22:57:18.203Z,1.30
2023-03-26T22:59:48.559Z,1.40
2023-03-26T23:02:19.018Z,1.70
2023-03-26T23:04:49.400Z,1.40
2023-03-26T23:07:19.770Z,1.40
2023-03-26T23:09:50.383Z,1.30
2023-03-26T23:12:20.669Z,1.20
2023-03-26T23:14:52.763Z,1.30
2023-03-26T23:17:23.930Z,1.50
2023-03-26T23:19:54.614Z,1.10
2023-03-26T23:22:25.535Z,1.50
2023-03-26T23:24:56.197Z,1.50
2023-03-26T23:27:27.420Z,1.40
2023-03-26T23:29:58.075Z,1.10
2023-03-26T23:32:28.969Z,1.10
2023-03-26T23:34:59.501Z,1.60
2023-03-26T23:37:35.017Z,1.20
2023-03-26T23:40:09.876Z,1.30
2023-03-26T23:42:40.359Z,1.00
2023-03-26T23:45:13.019Z,1.00
2023-03-26T23:47:44.501Z,1.10
2023-03-26T23:50:15.094Z,1.30
2023-03-26T23:52:45.738Z,1.30
2023-03-26T23:55:16.340Z,0.90
2023-03-26T23:57:46.957Z,1.10
